Time;durP1;ratioP1;P1;durP2;ratioP2;P2;SDS_P1;SDS_P2;PMS_P1;PMS_P2;Temp;Humidity;BMP_temperature;BMP_pressure;BME280_temperature;BME280_humidity;BME280_pressure;Samples;Min_cycle;Max_cycle;Signal;HPM_P1;HPM_P2
2022/10/26 00:00:33;;;;;;;1.20;1.10;;;21.10;99.90;;;;;;5091541;28;20541;-66
2022/10/26 00:02:59;;;;;;;1.20;1.20;;;21.10;99.90;;;;;;5091446;28;20542;-68
2022/10/26 00:05:26;;;;;;;0.90;0.90;;;21.10;99.90;;;;;;5091676;28;20907;-70
2022/10/26 00:07:53;;;;;;;1.50;1.40;;;21.10;99.90;;;;;;5091675;28;20486;-69
2022/10/26 00:10:21;;;;;;;1.13;1.13;;;21.00;99.90;;;;;;5091672;28;20529;-73
2022/10/26 00:12:50;;;;;;;1.20;1.20;;;21.00;99.90;;;;;;5091707;28;20489;-71
2022/10/26 00:15:17;;;;;;;1.73;1.40;;;21.00;99.90;;;;;;5091641;28;20462;-71
2022/10/26 00:17:44;;;;;;;1.50;1.40;;;21.00;99.90;;;;;;5091665;28;20450;-70
2022/10/26 00:20:12;;;;;;;1.00;1.00;;;21.00;99.90;;;;;;5091426;28;20466;-71
2022/10/26 17:22:29;;;;;;;7.17;4.43;;;20.90;99.90;;;;;;5089487;27;20554;-69
2022/10/26 17:24:56;;;;;;;6.07;4.60;;;20.90;99.90;;;;;;5076430;28;20455;-70
2022/10/26 17:27:25;;;;;;;7.50;4.90;;;20.90;99.90;;;;;;5069099;28;20471;-69
2022/10/26 17:29:52;;;;;;;5.93;4.07;;;21.00;99.90;;;;;;5068887;28;20531;-68
2022/10/26 17:32:21;;;;;;;3.97;3.57;;;21.10;99.90;;;;;;5068864;28;20526;-68
2022/10/26 17:34:47;;;;;;;6.93;4.40;;;21.10;99.90;;;;;;5070914;28;20566;-67
2022/10/26 17:37:15;;;;;;;8.00;3.80;;;21.20;99.90;;;;;;5069681;28;20530;-65
2022/10/26 17:39:43;;;;;;;8.47;3.27;;;21.20;99.90;;;;;;5069667;28;20439;-65
2022/10/26 17:42:10;;;;;;;8.23;3.97;;;21.20;99.90;;;;;;5088332;28;20510;-68
2022/10/26 17:44:38;;;;;;;4.93;3.63;;;21.30;99.90;;;;;;5090443;28;20486;-67
2022/10/26 17:47:10;;;;;;;6.00;3.47;;;21.30;99.90;;;;;;5090175;28;20443;-66
2022/10/26 17:49:41;;;;;;;4.27;3.03;;;21.30;99.90;;;;;;5079081;28;20530;-67
2022/10/26 17:52:10;;;;;;;3.20;2.90;;;21.30;99.90;;;;;;5076850;28;20451;-68
2022/10/26 17:54:37;;;;;;;3.87;3.33;;;21.40;99.90;;;;;;5068786;28;20467;-70
2022/10/26 17:57:06;;;;;;;5.23;4.13;;;21.40;99.90;;;;;;5068821;28;20513;-70
2022/10/26 17:59:33;;;;;;;7.83;4.27;;;21.40;99.90;;;;;;5069181;28;20937;-69
2022/10/26 18:02:00;;;;;;;3.63;3.33;;;21.40;99.90;;;;;;5068344;28;20483;-69
2022/10/26 18:04:27;;;;;;;7.43;3.57;;;21.50;99.90;;;;;;5068304;28;21042;-69
2022/10/26 18:06:54;;;;;;;4.27;3.07;;;21.50;99.90;;;;;;5068878;28;20451;-69
2022/10/26 18:09:22;;;;;;;4.90;3.97;;;21.50;99.90;;;;;;5068462;28;20455;-73
2022/10/26 18:11:48;;;;;;;5.50;3.50;;;21.50;99.90;;;;;;5083282;28;20496;-69
2022/10/26 18:14:17;;;;;;;5.13;3.53;;;21.50;99.90;;;;;;5088870;28;20553;-69
2022/10/26 18:16:44;;;;;;;4.97;3.73;;;21.50;99.90;;;;;;5088581;28;20454;-70
2022/10/26 18:19:10;;;;;;;6.77;3.83;;;21.50;99.90;;;;;;5087026;28;20475;-69
2022/10/26 18:21:37;;;;;;;5.13;3.50;;;21.40;99.90;;;;;;5082913;28;20476;-68
2022/10/26 18:24:05;;;;;;;6.20;4.43;;;21.50;99.90;;;;;;5069551;28;20503;-69
2022/10/26 18:26:32;;;;;;;4.77;3.47;;;21.50;99.90;;;;;;5069811;28;20522;-68
2022/10/26 18:29:01;;;;;;;5.70;4.03;;;21.50;99.90;;;;;;5078509;28;20522;-67
2022/10/26 18:31:30;;;;;;;8.73;3.70;;;21.50;99.90;;;;;;5090295;28;20572;-68
2022/10/26 18:33:59;;;;;;;4.40;3.80;;;21.50;99.90;;;;;;5077037;28;20555;-72
2022/10/26 18:36:26;;;;;;;7.67;4.07;;;21.50;99.90;;;;;;5078141;28;20447;-65
2022/10/26 18:38:54;;;;;;;5.60;3.63;;;21.50;99.90;;;;;;5075860;28;20446;-66
2022/10/26 18:41:22;;;;;;;9.53;3.73;;;21.40;99.90;;;;;;5065651;28;20472;-65
2022/10/26 18:43:50;;;;;;;4.67;3.60;;;21.40;99.90;;;;;;5056328;28;20467;-67
2022/10/26 18:46:22;;;;;;;9.10;4.07;;;21.30;99.90;;;;;;5056419;28;20543;-65
2022/10/26 18:48:51;;;;;;;9.00;4.27;;;21.40;99.90;;;;;;5056570;28;20527;-66
2022/10/26 18:51:20;;;;;;;7.77;3.67;;;21.30;99.90;;;;;;5056109;28;20448;-68
2022/10/26 18:53:48;;;;;;;6.00;4.10;;;21.30;99.90;;;;;;5070364;28;20467;-67
2022/10/26 18:56:17;;;;;;;6.17;3.60;;;21.30;99.90;;;;;;5075947;28;20443;-69
2022/10/26 18:58:46;;;;;;;6.97;4.03;;;21.40;99.90;;;;;;5075216;28;20478;-64
2022/10/26 19:01:15;;;;;;;7.83;3.17;;;21.40;99.90;;;;;;5067051;28;20476;-68
2022/10/26 19:03:43;;;;;;;7.30;3.70;;;21.40;99.90;;;;;;5054536;28;20813;-68
2022/10/26 19:06:13;;;;;;;5.83;3.60;;;21.40;99.90;;;;;;5054680;28;20476;-67
2022/10/26 19:08:41;;;;;;;3.13;2.70;;;21.40;99.90;;;;;;5055478;28;20888;-68
2022/10/26 19:11:10;;;;;;;5.37;3.30;;;21.40;99.90;;;;;;5061003;28;20439;-64
2022/10/26 19:13:37;;;;;;;6.03;3.83;;;21.50;99.90;;;;;;5074726;28;20999;-68
2022/10/26 19:16:05;;;;;;;6.63;3.80;;;21.50;99.90;;;;;;5075335;28;20899;-68
2022/10/26 19:18:32;;;;;;;6.37;2.73;;;21.50;99.90;;;;;;5075802;28;20442;-66
2022/10/26 19:21:00;;;;;;;5.77;3.30;;;21.50;99.90;;;;;;5075176;28;20539;-69
2022/10/26 19:23:33;;;;;;;5.90;3.47;;;21.50;99.90;;;;;;5066303;28;20447;-71
2022/10/26 19:26:00;;;;;;;3.70;3.10;;;21.50;99.90;;;;;;5055164;28;20458;-69
2022/10/26 19:28:28;;;;;;;6.53;3.60;;;21.50;99.90;;;;;;5053931;28;20536;-73
2022/10/26 19:30:55;;;;;;;5.03;3.17;;;21.50;99.90;;;;;;5056479;28;20960;-67
2022/10/26 19:33:24;;;;;;;7.07;4.10;;;21.50;99.90;;;;;;5056057;28;20531;-69
2022/10/26 19:35:51;;;;;;;5.47;2.40;;;21.50;99.90;;;;;;5055347;28;20495;-69
2022/10/26 19:38:18;;;;;;;7.43;2.10;;;21.50;99.90;;;;;;5073227;28;20573;-65
2022/10/26 19:40:47;;;;;;;4.93;3.40;;;21.50;99.90;;;;;;5074734;28;20937;-68
2022/10/26 19:43:15;;;;;;;4.57;3.60;;;21.50;99.90;;;;;;5074627;28;20440;-67
2022/10/26 19:45:42;;;;;;;3.90;2.80;;;21.50;99.90;;;;;;5074204;28;20987;-67
2022/10/26 19:48:09;;;;;;;7.80;2.40;;;21.50;99.90;;;;;;5059157;28;20527;-66
2022/10/26 19:50:36;;;;;;;4.30;3.20;;;21.50;99.90;;;;;;5054288;28;21040;-67
2022/10/26 19:53:03;;;;;;;2.60;2.33;;;21.50;99.90;;;;;;5055009;28;20456;-71
2022/10/26 19:55:30;;;;;;;5.33;2.47;;;21.50;99.90;;;;;;5063541;28;20468;-68
2022/10/26 19:57:59;;;;;;;4.90;2.40;;;21.50;99.90;;;;;;5074961;28;20443;-68
2022/10/26 20:00:26;;;;;;;3.10;2.70;;;21.50;99.90;;;;;;5074671;28;20505;-68
2022/10/26 20:02:53;;;;;;;7.90;2.40;;;21.60;99.90;;;;;;5076663;28;20475;-74
2022/10/26 20:05:20;;;;;;;3.13;2.67;;;21.60;99.90;;;;;;5074493;28;20471;-67
2022/10/26 20:07:47;;;;;;;6.57;2.80;;;21.50;99.90;;;;;;5074376;28;20952;-66
2022/10/26 20:10:14;;;;;;;4.40;3.63;;;21.50;99.90;;;;;;5073390;28;20450;-67
2022/10/26 20:12:40;;;;;;;6.30;3.20;;;21.50;99.90;;;;;;5073105;28;20810;-67
2022/10/26 20:15:09;;;;;;;3.90;3.13;;;21.50;99.90;;;;;;5054974;28;20474;-70
2022/10/26 20:17:36;;;;;;;5.67;3.10;;;21.50;99.90;;;;;;5053463;28;20454;-70
2022/10/26 20:20:04;;;;;;;6.13;2.73;;;21.50;99.90;;;;;;5054780;28;20480;-69
2022/10/26 20:22:31;;;;;;;5.60;2.83;;;21.50;99.90;;;;;;5053645;28;20511;-65
2022/10/26 20:24:59;;;;;;;3.70;2.27;;;21.50;99.90;;;;;;5073066;28;20521;-65
2022/10/26 20:27:26;;;;;;;4.87;2.83;;;21.50;99.90;;;;;;5073471;28;20454;-65
2022/10/26 20:29:53;;;;;;;2.93;2.63;;;21.50;99.90;;;;;;5073094;28;20486;-64
2022/10/26 20:32:24;;;;;;;4.97;2.23;;;21.50;99.90;;;;;;5073531;28;20466;-64
2022/10/26 20:34:51;;;;;;;6.77;2.60;;;21.50;99.90;;;;;;5056735;28;20563;-64
2022/10/26 20:37:19;;;;;;;3.57;2.63;;;21.40;99.90;;;;;;5053975;28;20458;-63
2022/10/26 20:39:46;;;;;;;5.20;2.87;;;21.40;99.90;;;;;;5053409;28;20436;-64
2022/10/26 20:42:22;;;;;;;4.80;4.23;;;21.50;99.90;;;;;;5056622;28;20570;-66
2022/10/26 20:44:54;;;;;;;2.70;2.30;;;21.40;99.90;;;;;;5075900;28;20477;-65
2022/10/26 20:47:22;;;;;;;7.13;3.60;;;21.50;99.90;;;;;;5074400;28;20444;-67
2022/10/26 20:49:50;;;;;;;2.60;2.40;;;21.50;99.90;;;;;;5072473;28;20455;-64
2022/10/26 20:52:22;;;;;;;3.77;2.53;;;21.50;99.90;;;;;;5073930;28;20450;-72
2022/10/26 20:54:55;;;;;;;5.10;3.17;;;21.40;99.90;;;;;;5053782;28;20479;-70
2022/10/26 20:57:29;;;;;;;3.53;2.30;;;21.50;99.90;;;;;;5052792;28;20934;-69
2022/10/26 21:00:02;;;;;;;3.50;2.60;;;21.50;99.90;;;;;;5052155;28;20539;-68
2022/10/26 21:02:30;;;;;;;11.63;2.90;;;21.50;99.90;;;;;;5052144;28;20479;-69
